Time;durP1;ratioP1;P1;durP2;ratioP2;P2;SDS_P1;SDS_P2;PMS_P1;PMS_P2;Temp;Humidity;BMP_temperature;BMP_pressure;BME280_temperature;BME280_humidity;BME280_pressure;Samples;Min_cycle;Max_cycle;Signal;HPM_P1;HPM_P2
2023/10/13 00:02:04;;;;;;;2.70;1.08;;;;;;;19.80;55.62;96843.03;10286801;28;20031;-30
2023/10/13 00:07:08;;;;;;;1.15;1.00;;;;;;;19.80;55.53;96837.97;10285387;28;20125;-29
2023/10/13 00:12:13;;;;;;;1.48;1.30;;;;;;;19.81;55.52;96838.78;10285352;28;20401;-29
2023/10/13 00:17:20;;;;;;;1.25;1.15;;;;;;;19.79;55.43;96830.34;10286165;28;20034;-28
2023/10/13 00:22:22;;;;;;;1.00;0.90;;;;;;;19.80;55.49;96826.94;10280772;28;20026;-29
2023/10/13 00:32:31;;;;;;;1.38;1.08;;;;;;;19.79;55.33;96815.09;10280919;28;20042;-30
2023/10/13 00:37:41;;;;;;;1.70;1.17;;;;;;;19.80;55.49;96811.69;10280491;28;20408;-29
2023/10/13 00:42:53;;;;;;;1.60;1.50;;;;;;;19.77;55.30;96811.72;10284530;28;20386;-29
2023/10/13 00:47:57;;;;;;;1.50;1.20;;;;;;;19.80;55.42;96811.69;10285778;28;20038;-29
2023/10/13 00:52:57;;;;;;;1.63;1.45;;;;;;;19.82;55.58;96802.38;10284985;28;20041;-28
2023/10/13 00:58:03;;;;;;;1.50;1.17;;;;;;;19.81;55.43;96808.31;10291596;28;20042;-28
2023/10/13 01:03:06;;;;;;;1.58;1.10;;;;;;;19.78;55.34;96793.09;10291259;28;20126;-29
2023/10/13 01:08:11;;;;;;;0.70;0.70;;;;;;;19.80;55.30;96804.94;10291370;28;20030;-29
2023/10/13 01:13:12;;;;;;;1.40;1.00;;;;;;;19.80;55.43;96802.41;10290905;28;20058;-29
2023/10/13 01:18:13;;;;;;;2.47;1.20;;;;;;;19.80;55.47;96799.00;10291519;28;20065;-29
2023/10/13 01:23:24;;;;;;;0.85;0.80;;;;;;;19.80;55.37;96802.41;10289786;28;20086;-30
2023/10/13 01:28:25;;;;;;;1.42;0.98;;;;;;;19.80;55.46;96797.31;10289181;28;20038;-29
2023/10/13 01:33:29;;;;;;;0.80;0.80;;;;;;;19.79;55.30;96807.47;10280566;28;20063;-29
2023/10/13 01:38:33;;;;;;;0.88;0.73;;;;;;;19.79;55.36;96795.63;10288921;28;20049;-29
2023/10/13 01:43:34;;;;;;;1.13;1.02;;;;;;;19.79;55.27;96790.56;10279817;28;20031;-29
2023/10/13 01:48:38;;;;;;;1.83;1.42;;;;;;;19.79;55.28;96797.31;10290048;28;20121;-29
2023/10/13 01:53:41;;;;;;;1.20;1.00;;;;;;;19.79;55.13;96782.06;10280927;28;20054;-29
2023/10/13 01:58:42;;;;;;;1.08;0.98;;;;;;;19.78;55.18;96783.78;10287343;28;20037;-29
2023/10/13 02:03:46;;;;;;;1.40;1.23;;;;;;;19.79;54.69;96779.53;10284470;28;20035;-29
2023/10/13 02:08:51;;;;;;;1.05;0.82;;;;;;;19.77;55.49;96771.06;10278862;28;20178;-30
2023/10/13 02:13:53;;;;;;;0.90;0.80;;;;;;;19.80;55.39;96773.59;10286572;28;20039;-29
2023/10/13 02:18:54;;;;;;;0.77;0.75;;;;;;;19.79;55.27;96769.38;10287196;28;20126;-30
2023/10/13 02:24:03;;;;;;;1.30;1.17;;;;;;;19.79;54.88;96760.06;10287489;28;20029;-29
2023/10/13 02:29:07;;;;;;;1.23;0.75;;;;;;;19.81;55.24;96754.94;10286016;28;20031;-29
2023/10/13 02:34:08;;;;;;;1.30;0.90;;;;;;;19.82;55.65;96756.63;10280783;28;20057;-28
2023/10/13 02:39:09;;;;;;;2.03;1.35;;;;;;;19.88;56.07;96756.63;10281135;28;20038;-31
2023/10/13 02:44:11;;;;;;;1.17;1.07;;;;;;;19.92;55.48;96750.69;10287522;28;20031;-29
2023/10/13 02:49:13;;;;;;;1.00;0.88;;;;;;;19.93;56.17;96734.59;10279612;28;20100;-30
2023/10/13 02:54:18;;;;;;;1.38;1.13;;;;;;;19.92;55.40;96731.19;10276070;28;20178;-29
2023/10/13 02:59:33;;;;;;;1.15;1.05;;;;;;;19.95;55.15;96725.25;10284544;28;20173;-29
2023/10/13 03:04:35;;;;;;;1.80;1.60;;;;;;;19.95;55.29;96720.16;10286311;28;20039;-30
2023/10/13 03:09:37;;;;;;;1.65;1.35;;;;;;;19.96;55.28;96711.69;10278377;28;20045;-29
2023/10/13 03:14:37;;;;;;;1.30;1.17;;;;;;;19.94;55.22;96703.22;10286181;28;20065;-29
2023/10/13 03:19:38;;;;;;;1.40;1.10;;;;;;;19.95;55.26;96708.31;10278109;28;20033;-30
2023/10/13 03:24:45;;;;;;;2.03;1.08;;;;;;;19.93;55.48;96707.47;10285504;28;20520;-29
2023/10/13 03:29:54;;;;;;;1.20;1.02;;;;;;;19.95;55.34;96699.84;10282470;28;20047;-30
2023/10/13 03:40:06;;;;;;;2.40;1.20;;;;;;;19.95;55.19;96690.53;10288205;28;20464;-29
2023/10/13 03:45:10;;;;;;;1.02;0.93;;;;;;;19.94;55.14;96686.28;10279236;28;20038;-29
2023/10/13 03:50:16;;;;;;;1.10;0.90;;;;;;;19.93;55.92;96683.75;10267622;28;20046;-29
2023/10/13 03:55:17;;;;;;;1.30;1.10;;;;;;;19.97;55.40;96680.34;10285108;28;20034;-30
2023/10/13 04:00:25;;;;;;;1.13;1.02;;;;;;;19.97;55.10;96680.34;10260123;28;20039;-29
2023/10/13 04:06:00;;;;;;;1.25;1.15;;;;;;;19.99;55.31;96673.53;10249364;28;20038;-30
2023/10/13 04:32:13;;;;;;;1.42;1.27;;;;;;;19.97;55.36;96657.47;10286457;28;20043;-29
2023/10/13 04:38:19;;;;;;;1.13;1.00;;;;;;;19.95;55.43;96649.88;10292087;28;20461;-29
2023/10/13 04:42:58;;;;;;;3.00;1.80;;;;;;;19.93;55.32;96649.00;10287186;28;20073;-29
2023/10/13 04:48:27;;;;;;;1.90;1.45;;;;;;;19.94;55.06;96643.06;10282634;28;20079;-28
2023/10/13 04:53:33;;;;;;;2.20;1.30;;;;;;;19.93;55.13;96638.84;10284236;28;20038;-30
2023/10/13 06:28:43;;;;;;;1.55;1.42;;;;;;;19.82;54.30;96647.41;10288166;28;20113;-29
2023/10/13 06:33:47;;;;;;;3.55;1.80;;;;;;;19.82;54.15;96643.16;10292920;28;20035;-27
2023/10/13 06:38:54;;;;;;;2.25;1.42;;;;;;;19.81;54.16;96650.78;10287482;28;20038;-29
2023/10/13 06:44:01;;;;;;;3.28;1.75;;;;;;;19.81;53.92;96641.50;10287376;28;20080;-28
2023/10/13 06:49:02;;;;;;;2.75;1.60;;;;;;;19.86;54.15;96644.00;10288476;28;20039;-28
2023/10/13 06:54:03;;;;;;;3.25;1.70;;;;;;;19.82;54.02;96644.84;10286639;28;20560;-27
2023/10/13 06:59:07;;;;;;;1.63;1.50;;;;;;;19.84;53.93;96640.63;10282831;28;20034;-28
2023/10/13 07:04:15;;;;;;;2.95;1.88;;;;;;;19.80;53.76;96636.41;10268726;28;20024;-28
2023/10/13 07:14:38;;;;;;;2.00;1.70;;;;;;;19.79;53.81;96624.56;10289079;28;20042;-27
2023/10/13 07:19:52;;;;;;;2.00;1.60;;;;;;;19.86;53.53;96638.91;10287934;28;20062;-28
2023/10/13 07:24:53;;;;;;;3.85;1.58;;;;;;;19.86;53.45;96647.38;10289249;28;20128;-28
2023/10/13 07:30:13;;;;;;;3.03;2.03;;;;;;;19.88;53.38;96638.06;10287653;28;20118;-28
2023/10/13 07:35:20;;;;;;;3.03;1.60;;;;;;;19.87;53.37;96640.59;10287745;28;20046;-28
2023/10/13 07:40:50;;;;;;;2.83;1.40;;;;;;;19.85;53.53;96645.69;10289564;28;20038;-28
2023/10/13 07:45:43;;;;;;;3.05;1.65;;;;;;;19.85;53.75;96647.41;10283249;28;20047;-28
2023/10/13 07:50:45;;;;;;;1.92;1.33;;;;;;;19.85;53.43;96643.13;10276748;28;20036;-28
2023/10/13 07:55:55;;;;;;;5.43;2.70;;;;;;;19.93;53.78;96646.47;10275573;28;20066;-28
2023/10/13 08:06:19;;;;;;;2.55;1.48;;;;;;;19.88;53.56;96642.28;10276542;28;20066;-28
2023/10/13 08:16:29;;;;;;;3.67;1.80;;;;;;;19.85;53.71;96634.69;10286607;28;20043;-28
2023/10/13 08:21:31;;;;;;;4.60;1.88;;;;;;;19.89;53.80;96626.19;10293295;28;20057;-29
2023/10/13 08:31:41;;;;;;;1.88;1.48;;;;;;;19.86;53.65;96629.56;10279125;28;20042;-27
2023/10/13 08:36:41;;;;;;;4.60;1.85;;;;;;;19.88;53.79;96627.91;10285086;28;20445;-28
2023/10/13 08:42:11;;;;;;;2.63;1.70;;;;;;;19.89;53.91;96633.81;10290792;28;20034;-28
2023/10/13 08:47:24;;;;;;;2.40;1.85;;;;;;;19.88;53.99;96634.66;10292199;28;20034;-28
2023/10/13 08:57:49;;;;;;;3.55;1.65;;;;;;;19.87;53.97;96628.75;10287135;28;20037;-28
2023/10/13 09:02:59;;;;;;;2.43;1.50;;;;;;;19.87;54.04;96628.75;10292788;28;20037;-29
2023/10/13 09:08:08;;;;;;;3.58;1.50;;;;;;;19.88;54.05;96615.19;10289867;28;20047;-28
2023/10/13 09:13:11;;;;;;;2.65;1.48;;;;;;;19.88;54.22;96609.25;10282898;28;20500;-29
2023/10/13 09:18:38;;;;;;;2.65;1.30;;;;;;;19.90;54.12;96605.00;10283399;28;20042;-29
2023/10/13 09:23:48;;;;;;;2.47;1.50;;;;;;;19.88;54.21;96596.53;10284017;28;20043;-28
2023/10/13 09:28:53;;;;;;;1.65;1.40;;;;;;;19.89;54.24;96593.16;10289532;28;20046;-27
2023/10/13 09:33:55;;;;;;;3.53;1.90;;;;;;;19.88;54.60;96601.63;10290360;28;20043;-28
2023/10/13 09:39:12;;;;;;;5.43;2.22;;;;;;;19.90;54.47;96589.75;10290700;28;20066;-28
2023/10/13 09:44:12;;;;;;;;;;;;;;;19.91;54.38;96592.28;10290311;28;20046;-28
2023/10/13 09:49:33;;;;;;;13.47;2.37;;;;;;;19.82;54.84;96592.34;10289764;28;20376;-29
2023/10/13 09:54:41;;;;;;;6.75;2.40;;;;;;;19.90;54.79;96575.38;10288943;28;20685;-28
2023/10/13 09:59:52;;;;;;;11.90;4.38;;;;;;;19.91;54.51;96579.59;10290324;28;20126;-29
2023/10/13 10:04:55;;;;;;;8.43;2.30;;;;;;;19.90;54.61;96574.50;10287387;28;20042;-28
2023/10/13 10:10:00;;;;;;;8.25;2.40;;;;;;;19.91;54.59;96568.59;10291074;28;20118;-28
2023/10/13 10:15:30;;;;;;;7.05;2.50;;;;;;;19.92;54.49;96567.75;10275531;28;20438;-28
2023/10/13 10:20:39;;;;;;;6.97;2.47;;;;;;;19.90;54.54;96557.56;10282694;28;20042;-27
2023/10/13 10:25:44;;;;;;;7.63;3.97;;;;;;;19.91;54.58;96556.72;10284233;28;20038;-28
2023/10/13 10:30:45;;;;;;;6.93;2.80;;;;;;;19.91;54.59;96545.72;10289116;28;20043;-28
2023/10/13 10:35:46;;;;;;;4.22;2.80;;;;;;;19.91;54.48;96546.56;10281397;28;20125;-28
2023/10/13 10:40:58;;;;;;;6.22;2.90;;;;;;;19.92;54.27;96542.31;10276293;28;20054;-29
2023/10/13 10:46:01;;;;;;;7.28;3.60;;;;;;;19.91;54.43;96533.03;10285603;28;20045;-28
2023/10/13 10:56:25;;;;;;;11.93;4.78;;;;;;;19.94;54.44;96526.19;10475704;28;20025;-27
2023/10/13 11:01:33;;;;;;;15.52;4.13;;;;;;;19.96;54.69;96526.19;10466109;28;20052;-27
2023/10/13 11:06:41;;;;;;;18.73;4.70;;;;;;;19.98;54.75;96511.75;10473707;28;20036;-27
2023/10/13 11:11:43;;;;;;;17.95;5.45;;;;;;;19.99;54.06;96513.44;10472181;28;20155;-28
2023/10/13 11:16:53;;;;;;;8.10;3.65;;;;;;;19.97;54.72;96494.84;10473176;28;20032;-26
2023/10/13 11:21:55;;;;;;;7.30;4.10;;;;;;;19.98;54.21;96491.44;10468306;28;20499;-28
2023/10/13 11:26:57;;;;;;;7.53;4.38;;;;;;;19.99;54.32;96490.56;10471971;28;20120;-27
2023/10/13 11:32:00;;;;;;;8.02;3.85;;;;;;;19.99;54.51;96477.88;10466708;28;20033;-27
2023/10/13 11:37:28;;;;;;;9.13;3.70;;;;;;;20.01;54.19;96476.19;10467857;28;20037;-26
2023/10/13 11:42:21;;;;;;;10.77;4.15;;;;;;;19.97;54.55;96452.50;10469331;28;20033;-27
2023/10/13 11:47:47;;;;;;;7.87;3.73;;;;;;;20.01;53.49;96455.84;10467693;28;20047;-27
2023/10/13 11:52:47;;;;;;;9.33;3.70;;;;;;;19.99;54.24;96449.91;10464209;28;20044;-27
2023/10/13 11:57:48;;;;;;;10.87;4.80;;;;;;;19.97;54.52;96438.94;10466072;28;20040;-27
2023/10/13 12:08:21;;;;;;;12.68;5.60;;;;;;;19.94;54.56;96426.28;10434618;28;20136;-26
2023/10/13 12:13:22;;;;;;;9.70;4.90;;;;;;;19.92;54.47;96415.28;10445209;28;20127;-28
2023/10/13 12:18:23;;;;;;;6.27;3.77;;;;;;;19.93;54.62;96422.88;10440781;28;20544;-27
2023/10/13 12:23:31;;;;;;;8.13;4.00;;;;;;;19.91;54.57;96401.72;10441742;28;20036;-28
2023/10/13 12:28:37;;;;;;;5.60;4.03;;;;;;;19.91;54.35;96408.53;10441152;28;20041;-27
2023/10/13 12:33:40;;;;;;;6.03;3.67;;;;;;;19.92;54.41;96390.69;10443390;28;20094;-27
2023/10/13 12:49:38;;;;;;;4.43;2.80;;;;;;;20.03;54.70;96370.25;10439354;28;20514;-27
2023/10/13 12:54:39;;;;;;;4.97;2.30;;;;;;;19.99;55.54;96364.38;10438630;28;20037;-27
2023/10/13 12:59:40;;;;;;;5.93;3.00;;;;;;;20.01;53.11;96354.19;10447772;28;20035;-28
2023/10/13 13:04:44;;;;;;;6.43;3.17;;;;;;;20.00;54.33;96342.34;10444288;28;20037;-27
2023/10/13 13:09:44;;;;;;;4.32;2.53;;;;;;;20.01;53.81;96342.31;10443298;28;20033;-28
2023/10/13 13:14:48;;;;;;;3.10;2.50;;;;;;;20.09;51.15;96334.66;10439226;28;20045;-27
2023/10/13 13:19:48;;;;;;;3.47;2.33;;;;;;;20.01;55.04;96336.41;10438866;28;20028;-27
2023/10/13 13:24:49;;;;;;;4.80;2.53;;;;;;;20.02;53.11;96327.94;10439071;28;20045;-27
2023/10/13 13:29:49;;;;;;;5.28;3.05;;;;;;;19.98;54.82;96326.25;10441597;28;20299;-27
2023/10/13 13:35:13;;;;;;;4.97;2.50;;;;;;;19.99;54.65;96317.78;10434292;28;20681;-27
2023/10/13 13:40:14;;;;;;;3.25;2.67;;;;;;;20.06;51.67;96309.25;10441285;28;20029;-28
2023/10/13 13:45:22;;;;;;;5.63;2.75;;;;;;;20.06;52.90;96306.72;10440017;28;20029;-27
2023/10/13 13:50:28;;;;;;;4.47;2.72;;;;;;;20.00;54.42;96294.06;10432297;28;20496;-29
2023/10/13 13:55:33;;;;;;;4.88;3.13;;;;;;;20.11;51.64;96294.81;10441935;28;20112;-30
2023/10/13 14:00:37;;;;;;;6.85;2.63;;;;;;;20.12;51.04;96277.00;10437372;28;20033;-29
2023/10/13 14:05:40;;;;;;;15.52;5.13;;;;;;;20.12;51.75;96271.06;10441212;28;20032;-30
2023/10/13 14:16:00;;;;;;;4.75;2.63;;;;;;;20.09;53.48;96255.88;10442310;28;20082;-29
2023/10/13 14:21:03;;;;;;;3.70;2.07;;;;;;;20.03;54.26;96255.91;10439919;28;20114;-29
2023/10/13 14:26:09;;;;;;;7.85;3.03;;;;;;;20.11;51.81;96249.88;10440722;28;20491;-29
2023/10/13 14:31:12;;;;;;;6.40;3.08;;;;;;;20.18;50.98;96253.19;10440364;28;20051;-29
2023/10/13 14:36:13;;;;;;;6.78;2.97;;;;;;;20.14;52.63;96254.09;10433855;28;20086;-29
2023/10/13 14:41:14;;;;;;;4.57;2.88;;;;;;;20.15;51.75;96245.59;10441087;28;20070;-29
2023/10/13 14:46:18;;;;;;;5.10;2.80;;;;;;;20.18;51.39;96245.56;10440913;28;20491;-29
2023/10/13 14:51:18;;;;;;;3.92;2.45;;;;;;;20.16;51.68;96243.03;10434438;28;20403;-29
2023/10/13 14:56:19;;;;;;;4.15;2.60;;;;;;;20.14;51.49;96231.22;10434644;28;20077;-29
2023/10/13 15:01:21;;;;;;;5.47;2.20;;;;;;;20.08;53.63;96236.41;10443720;28;20033;-29
2023/10/13 15:06:28;;;;;;;4.55;2.83;;;;;;;20.12;52.35;96230.41;10441550;28;20033;-29
2023/10/13 15:11:38;;;;;;;6.32;3.00;;;;;;;20.19;51.58;96235.38;10436640;28;20411;-29
2023/10/13 15:16:38;;;;;;;5.05;3.13;;;;;;;20.23;51.43;96233.63;10441535;28;20118;-29
2023/10/13 15:21:40;;;;;;;8.43;3.05;;;;;;;20.22;51.57;96231.94;10429786;28;20037;-31
2023/10/13 15:26:44;;;;;;;4.85;2.80;;;;;;;20.21;51.23;96215.88;10431597;28;20406;-29
2023/10/13 15:37:04;;;;;;;6.23;2.77;;;;;;;20.26;51.64;96219.16;10447988;28;20033;-29
2023/10/13 15:42:05;;;;;;;7.45;3.30;;;;;;;20.25;52.88;96214.94;10442549;28;20056;-29
2023/10/13 15:47:06;;;;;;;12.77;3.40;;;;;;;20.37;55.33;96198.66;10450032;28;20036;-29
2023/10/13 15:52:06;;;;;;;8.27;3.27;;;;;;;20.43;54.95;96204.50;10440813;28;20037;-29
2023/10/13 15:57:11;;;;;;;13.95;3.20;;;;;;;20.31;53.64;96191.97;10435437;28;20104;-29
2023/10/13 16:02:11;;;;;;;6.93;2.75;;;;;;;20.27;54.31;96192.06;10452600;28;20082;-29
2023/10/13 16:07:12;;;;;;;9.40;3.00;;;;;;;20.21;52.66;96184.50;10446606;28;20025;-29
2023/10/13 16:12:15;;;;;;;7.53;3.03;;;;;;;20.18;53.45;96184.56;10450230;28;20041;-30
2023/10/13 16:17:15;;;;;;;5.07;3.10;;;;;;;20.13;54.32;96183.78;10452718;28;20302;-29
2023/10/13 16:22:16;;;;;;;6.47;2.73;;;;;;;20.12;54.69;96189.75;10449519;28;20754;-29
2023/10/13 16:27:17;;;;;;;4.63;3.03;;;;;;;20.10;54.70;96186.38;10450066;28;20032;-29
2023/10/13 16:32:17;;;;;;;5.50;2.47;;;;;;;20.07;54.82;96189.81;10443989;28;20029;-29
2023/10/13 16:37:17;;;;;;;3.70;2.17;;;;;;;20.04;55.11;96199.13;10448250;28;20029;-29
2023/10/13 16:42:18;;;;;;;5.00;2.47;;;;;;;20.01;55.18;96201.75;10449979;28;20032;-29
2023/10/13 16:47:18;;;;;;;2.97;2.07;;;;;;;19.99;55.32;96204.28;10452219;28;20454;-30
2023/10/13 16:52:18;;;;;;;3.90;2.08;;;;;;;19.98;55.24;96206.84;10444983;28;20410;-29
2023/10/13 16:57:19;;;;;;;3.00;2.10;;;;;;;19.98;55.17;96211.91;10451831;28;20442;-29
2023/10/13 17:02:21;;;;;;;1.93;1.73;;;;;;;19.98;54.93;96209.38;10454502;28;20027;-29
2023/10/13 17:07:21;;;;;;;2.53;2.15;;;;;;;19.97;55.20;96210.25;10448383;28;20511;-29
2023/10/13 17:12:22;;;;;;;3.57;2.43;;;;;;;20.05;55.18;96213.56;10452022;28;20041;-29
2023/10/13 17:17:23;;;;;;;3.25;2.38;;;;;;;20.18;55.31;96210.00;10454097;28;20276;-30
2023/10/13 17:22:24;;;;;;;4.70;2.38;;;;;;;20.05;55.14;96209.31;10431115;28;20033;-29
2023/10/13 17:27:24;;;;;;;3.45;2.00;;;;;;;20.04;54.92;96202.56;10430986;28;20036;-29
2023/10/13 17:32:25;;;;;;;2.83;1.77;;;;;;;20.05;54.95;96206.78;10426595;28;20049;-30
2023/10/13 17:37:25;;;;;;;2.53;1.90;;;;;;;20.09;54.75;96205.03;10432533;28;20299;-29
2023/10/13 17:42:29;;;;;;;2.10;1.67;;;;;;;20.11;54.68;96204.13;10431604;28;20025;-29
2023/10/13 17:47:29;;;;;;;2.38;1.52;;;;;;;20.10;54.63;96215.16;10421802;28;20491;-29
2023/10/13 17:52:30;;;;;;;1.90;1.40;;;;;;;20.13;54.52;96211.75;10431745;28;20053;-29
2023/10/13 17:57:31;;;;;;;2.83;1.90;;;;;;;20.11;54.56;96216.03;10429940;28;20021;-30
2023/10/13 18:02:31;;;;;;;2.03;1.80;;;;;;;20.10;54.61;96225.34;10423997;28;20774;-31
2023/10/13 18:07:31;;;;;;;2.53;1.52;;;;;;;20.12;54.58;96216.00;10427546;28;20041;-29
2023/10/13 18:12:32;;;;;;;3.72;2.53;;;;;;;20.15;54.54;96220.19;10421445;28;20045;-29
2023/10/13 18:17:32;;;;;;;2.88;2.30;;;;;;;20.15;54.72;96225.25;10420308;28;20061;-29
2023/10/13 18:22:32;;;;;;;7.60;2.45;;;;;;;20.20;56.89;96219.28;10426118;28;20467;-29
2023/10/13 18:27:33;;;;;;;5.17;3.07;;;;;;;20.20;55.14;96208.25;10424415;28;20095;-28
2023/10/13 18:32:34;;;;;;;1.40;1.30;;;;;;;20.15;54.58;96199.84;10413551;28;20462;-30
2023/10/13 18:37:36;;;;;;;2.10;1.90;;;;;;;20.11;54.67;96193.16;10429699;28;20033;-29
2023/10/13 18:42:47;;;;;;;2.90;2.08;;;;;;;20.08;54.75;96194.03;10432090;28;20052;-29
2023/10/13 18:47:52;;;;;;;2.72;1.70;;;;;;;20.08;54.51;96201.66;10420383;28;20087;-29
2023/10/13 18:52:52;;;;;;;2.63;2.33;;;;;;;20.09;54.30;96210.94;10420374;28;20064;-29
2023/10/13 18:57:54;;;;;;;1.58;1.48;;;;;;;20.11;54.29;96203.31;10434603;28;20036;-29
2023/10/13 19:02:55;;;;;;;3.80;2.45;;;;;;;20.16;54.77;96207.47;10431295;28;20049;-29
2023/10/13 19:07:55;;;;;;;5.35;2.78;;;;;;;20.25;55.18;96203.97;10433463;28;20048;-28
2023/10/13 19:12:59;;;;;;;2.58;2.03;;;;;;;20.13;54.51;96196.50;10440951;28;20507;-28
2023/10/13 19:18:01;;;;;;;3.53;2.53;;;;;;;20.17;54.98;96210.84;10440249;28;20048;-29
2023/10/13 19:23:03;;;;;;;3.70;1.88;;;;;;;20.11;54.68;96211.75;10442434;28;20167;-29
2023/10/13 19:28:04;;;;;;;1.73;1.58;;;;;;;20.11;54.55;96205.84;10451039;28;20044;-29
2023/10/13 19:33:07;;;;;;;3.38;1.83;;;;;;;20.12;54.73;96212.63;10437015;28;20124;-28
2023/10/13 19:38:07;;;;;;;4.50;1.70;;;;;;;20.10;54.55;96216.88;10434216;28;20037;-29
2023/10/13 19:43:14;;;;;;;2.75;1.42;;;;;;;20.10;54.25;96204.19;10440504;28;20041;-29
2023/10/13 19:48:14;;;;;;;1.42;1.23;;;;;;;20.09;54.20;96205.03;10437768;28;20033;-29
2023/10/13 19:53:15;;;;;;;4.10;2.03;;;;;;;20.11;54.43;96188.06;10442814;28;20036;-29
2023/10/13 19:58:16;;;;;;;3.07;1.60;;;;;;;20.09;53.87;96197.41;10441456;28;20713;-28
2023/10/13 20:03:19;;;;;;;2.78;1.75;;;;;;;20.08;54.23;96194.03;10436181;28;20033;-29
2023/10/13 20:08:20;;;;;;;1.95;1.77;;;;;;;20.08;54.22;96193.19;10435041;28;20033;-29
2023/10/13 20:13:20;;;;;;;2.07;1.60;;;;;;;20.07;54.23;96191.50;10431888;28;20041;-29
2023/10/13 20:18:21;;;;;;;1.95;1.73;;;;;;;20.03;54.17;96189.84;10421262;28;20079;-29
2023/10/13 20:23:21;;;;;;;2.03;1.60;;;;;;;20.02;53.95;96188.16;10436991;28;20041;-29
2023/10/13 20:28:22;;;;;;;2.65;1.63;;;;;;;20.01;54.13;96178.88;10448905;28;20032;-29
2023/10/13 20:33:23;;;;;;;3.15;1.95;;;;;;;20.06;53.68;96187.28;10448863;28;20045;-28
2023/10/13 20:38:28;;;;;;;2.58;1.60;;;;;;;20.06;53.78;96205.06;10433119;28;20044;-28
2023/10/13 20:43:28;;;;;;;3.13;1.45;;;;;;;20.04;53.82;96196.59;10434882;28;20072;-29
2023/10/13 20:48:32;;;;;;;3.42;2.35;;;;;;;20.02;53.83;96189.00;10423893;28;20147;-28
2023/10/13 20:53:33;;;;;;;2.28;1.77;;;;;;;20.03;53.63;96198.28;10434392;28;20456;-28
2023/10/13 20:58:34;;;;;;;2.17;1.67;;;;;;;20.03;53.62;96189.84;10428897;28;20105;-28
2023/10/13 21:03:37;;;;;;;2.10;1.67;;;;;;;20.02;53.60;96185.63;10429367;28;20033;-29
2023/10/13 21:08:45;;;;;;;2.33;2.00;;;;;;;20.02;53.79;96175.47;10423936;28;20029;-28
2023/10/13 21:13:45;;;;;;;2.83;1.83;;;;;;;20.04;53.50;96179.69;10423679;28;20111;-30
2023/10/13 21:18:46;;;;;;;2.00;1.80;;;;;;;20.04;53.55;96182.25;10439785;28;20040;-28
2023/10/13 21:23:48;;;;;;;2.38;1.65;;;;;;;20.04;53.74;96182.25;10424907;28;20515;-30
2023/10/13 21:28:49;;;;;;;2.40;2.10;;;;;;;20.05;53.63;96188.16;10423174;28;20060;-28
2023/10/13 21:33:54;;;;;;;4.00;2.22;;;;;;;20.05;53.70;96177.97;10422596;28;20037;-29
2023/10/13 21:38:55;;;;;;;2.53;1.67;;;;;;;20.02;54.09;96189.00;10434434;28;20460;-28
2023/10/13 21:43:58;;;;;;;2.73;1.50;;;;;;;20.09;53.76;96189.78;10437103;28;20049;-30
2023/10/13 21:49:04;;;;;;;1.92;1.60;;;;;;;20.02;54.09;96193.25;10435929;28;20047;-29
2023/10/13 21:54:07;;;;;;;2.00;1.63;;;;;;;19.89;53.46;96181.56;10434436;28;20119;-28
2023/10/13 21:59:10;;;;;;;2.47;1.48;;;;;;;19.98;53.71;96182.28;10422590;28;20037;-29
2023/10/13 22:04:10;;;;;;;2.60;1.67;;;;;;;19.99;53.48;96204.28;10428418;28;20159;-28
2023/10/13 22:09:11;;;;;;;3.13;1.58;;;;;;;19.98;53.60;96181.44;10425343;28;20083;-30
2023/10/13 22:14:16;;;;;;;3.53;1.98;;;;;;;19.95;53.38;96186.56;10432399;28;20037;-29
2023/10/13 22:19:19;;;;;;;5.13;1.75;;;;;;;19.93;53.49;96198.47;10429167;28;20037;-29
2023/10/13 22:24:20;;;;;;;4.18;1.77;;;;;;;19.87;53.42;96198.53;10430899;28;20041;-29
2023/10/13 22:29:21;;;;;;;6.88;2.28;;;;;;;19.85;53.67;96205.34;10419661;28;20053;-29
2023/10/13 22:34:21;;;;;;;4.00;1.97;;;;;;;19.90;53.22;96224.75;10422139;28;20488;-28
2023/10/13 22:39:32;;;;;;;6.10;1.60;;;;;;;19.92;53.31;96217.09;10435554;28;20033;-28
2023/10/13 22:44:33;;;;;;;4.45;1.75;;;;;;;19.94;53.21;96230.63;10440613;28;20041;-30
2023/10/13 22:49:33;;;;;;;5.80;2.20;;;;;;;19.92;52.96;96212.03;10440093;28;20399;-30
2023/10/13 22:54:36;;;;;;;2.00;1.58;;;;;;;19.95;53.12;96207.75;10429403;28;20303;-29
2023/10/13 22:59:37;;;;;;;3.67;1.92;;;;;;;19.94;53.17;96211.13;10425971;28;20025;-29
2023/10/13 23:04:37;;;;;;;5.00;2.00;;;;;;;19.89;53.05;96214.59;10426203;28;20037;-28
2023/10/13 23:09:47;;;;;;;2.50;2.23;;;;;;;19.86;53.18;96207.03;10426560;28;20044;-31
2023/10/13 23:14:50;;;;;;;2.30;2.10;;;;;;;19.83;53.42;96199.47;10440716;28;20045;-29
2023/10/13 23:19:52;;;;;;;3.20;2.10;;;;;;;19.85;53.51;96200.25;10428732;28;20075;-29
2023/10/13 23:24:52;;;;;;;5.65;2.67;;;;;;;19.86;52.85;96204.47;10430793;28;20491;-29
2023/10/13 23:29:52;;;;;;;3.70;2.30;;;;;;;19.86;52.95;96204.47;10435795;28;20048;-29
2023/10/13 23:34:53;;;;;;;3.13;2.10;;;;;;;19.83;53.13;96233.31;10427278;28;20037;-29
2023/10/13 23:39:53;;;;;;;8.10;2.93;;;;;;;19.71;53.11;96235.16;10429843;28;20029;-30
2023/10/13 23:45:06;;;;;;;4.47;2.60;;;;;;;19.76;52.99;96230.88;10428659;28;20178;-28
2023/10/13 23:50:16;;;;;;;3.35;2.60;;;;;;;19.81;53.11;96229.94;10435293;28;20087;-28
2023/10/13 23:55:17;;;;;;;4.13;2.75;;;;;;;19.78;53.06;96240.16;10426110;28;20052;-29
